Time;durP1;ratioP1;P1;durP2;ratioP2;P2;SDS_P1;SDS_P2;PMS_P1;PMS_P2;Temp;Humidity;BMP_temperature;BMP_pressure;BME280_temperature;BME280_humidity;BME280_pressure;Samples;Min_cycle;Max_cycle;Signal;HPM_P1;HPM_P2
2022/01/22 00:00:37;;;;;;;13.67;3.70;;;5.20;99.90;;;;;;4861696;29;20504;-89
2022/01/22 00:03:09;;;;;;;17.23;3.70;;;5.30;99.90;;;;;;4861092;29;20064;-89
2022/01/22 00:06:26;;;;;;;15.77;4.27;;;5.80;99.90;;;;;;4858566;29;20394;-89
2022/01/22 00:08:57;;;;;;;19.70;4.40;;;4.60;99.90;;;;;;4861103;29;20073;-89
2022/01/22 00:11:23;;;;;;;23.13;6.30;;;5.40;99.90;;;;;;4860508;29;20057;-90
2022/01/22 00:16:54;;;;;;;20.40;5.20;;;6.60;99.90;;;;;;4861162;29;20120;-89
2022/01/22 00:19:29;;;;;;;19.70;5.07;;;5.10;99.90;;;;;;4861037;29;20426;-89
2022/01/22 00:21:58;;;;;;;19.50;4.10;;;6.00;99.90;;;;;;4872706;29;20077;-89
2022/01/22 00:24:46;;;;;;;17.33;4.30;;;5.20;99.90;;;;;;4861670;29;20054;-89
2022/01/22 00:27:28;;;;;;;18.30;4.93;;;5.10;99.90;;;;;;4861463;29;20048;-89
2022/01/22 00:30:12;;;;;;;18.83;4.60;;;5.30;99.90;;;;;;4861008;29;20057;-88
2022/01/22 00:32:51;;;;;;;15.90;4.10;;;5.30;99.90;;;;;;4860747;29;20052;-89
2022/01/22 00:35:27;;;;;;;23.07;6.47;;;5.20;99.90;;;;;;4861069;29;20053;-89
2022/01/22 00:38:02;;;;;;;18.90;4.97;;;5.20;99.90;;;;;;4860859;29;20084;-90
2022/01/22 00:40:33;;;;;;;17.37;4.57;;;5.30;99.90;;;;;;4861083;29;20045;-89
2022/01/22 00:43:18;;;;;;;16.73;3.67;;;5.20;99.90;;;;;;4861578;29;20390;-89
2022/01/22 00:45:50;;;;;;;17.27;5.37;;;6.80;99.90;;;;;;4914368;23;20193;-90
2022/01/22 00:48:18;;;;;;;14.17;3.97;;;5.30;99.90;;;;;;4867110;23;20822;-89
2022/01/22 00:50:59;;;;;;;14.97;4.30;;;5.40;99.90;;;;;;4861855;29;20430;-90
2022/01/22 00:53:34;;;;;;;14.53;3.47;;;5.50;99.90;;;;;;4861750;29;20065;-89
2022/01/22 00:56:06;;;;;;;15.90;3.80;;;5.40;99.90;;;;;;4861913;29;20513;-90
2022/01/22 00:58:47;;;;;;;25.97;6.20;;;5.90;99.90;;;;;;4874117;29;20042;-89
2022/01/22 01:01:22;;;;;;;18.60;4.10;;;5.20;99.90;;;;;;4861416;29;20111;-89
2022/01/22 01:04:01;;;;;;;18.27;5.13;;;5.20;99.90;;;;;;4860629;29;20052;-89
2022/01/22 01:06:32;;;;;;;13.80;3.80;;;6.70;99.90;;;;;;4859682;29;20084;-89
2022/01/22 01:09:14;;;;;;;10.63;3.07;;;5.40;99.90;;;;;;4861208;29;20397;-89
2022/01/22 01:11:53;;;;;;;17.47;4.03;;;5.10;99.90;;;;;;4861356;29;20057;-89
2022/01/22 01:14:39;;;;;;;14.23;3.33;;;5.30;99.90;;;;;;4859888;29;20057;-90
2022/01/22 01:34:14;;;;;;;18.37;3.83;;;6.00;99.90;;;;;;4871551;29;20464;-90
2022/01/22 01:37:00;;;;;;;12.07;3.27;;;5.60;99.90;;;;;;4863788;29;20087;-91
2022/01/22 01:39:37;;;;;;;12.95;3.35;;;5.50;99.90;;;;;;4860458;29;20387;-90
2022/01/22 01:46:32;;;;;;;14.13;3.50;;;5.00;99.90;;;;;;4859876;29;20065;-90
2022/01/22 01:49:23;;;;;;;13.80;3.10;;;6.30;99.90;;;;;;4857673;29;20482;-89
2022/01/22 01:51:50;;;;;;;12.57;3.33;;;6.30;99.90;;;;;;4859649;29;20512;-89
2022/01/22 01:59:46;;;;;;;15.83;3.30;;;5.60;99.90;;;;;;4859936;29;20101;-89
2022/01/22 02:02:36;;;;;;;20.07;3.73;;;6.50;99.90;;;;;;4858918;29;20049;-90
2022/01/22 02:05:02;;;;;;;15.00;3.37;;;5.70;99.90;;;;;;4860009;29;20490;-90
2022/01/22 02:07:46;;;;;;;16.23;3.45;;;5.70;99.90;;;;;;4869419;23;20060;-89
2022/01/22 02:10:23;;;;;;;14.27;3.67;;;5.70;99.90;;;;;;4872548;29;20093;-90
2022/01/22 02:24:17;;;;;;;;;;;5.70;99.90;;;;;;4859798;29;20057;-91
2022/01/22 02:26:49;;;;;;;14.47;3.10;;;6.30;99.90;;;;;;4860611;29;20008;-89
2022/01/22 02:29:18;;;;;;;9.83;2.90;;;5.50;99.90;;;;;;4859522;29;20054;-90
2022/01/22 02:32:16;;;;;;;12.87;2.70;;;6.10;99.90;;;;;;4859182;29;20053;-90
2022/01/22 02:35:07;;;;;;;14.63;2.90;;;6.10;99.90;;;;;;4860300;29;20050;-90
2022/01/22 02:37:58;;;;;;;15.10;3.27;;;5.60;99.90;;;;;;4861678;29;20053;-90
2022/01/22 02:40:42;;;;;;;13.30;3.03;;;5.70;99.90;;;;;;4861977;29;20064;-90
2022/01/22 02:43:33;;;;;;;14.30;2.90;;;5.70;99.90;;;;;;4862917;29;20045;-90
2022/01/22 02:46:08;;;;;;;11.83;3.07;;;6.90;99.90;;;;;;4867153;29;20075;-90
2022/01/22 02:48:40;;;;;;;12.27;2.70;;;5.70;99.90;;;;;;4869539;29;20084;-90
2022/01/22 02:51:08;;;;;;;13.00;2.80;;;6.00;99.90;;;;;;4863153;29;20056;-90
2022/01/22 02:53:53;;;;;;;11.73;2.93;;;5.40;99.90;;;;;;4862270;29;20174;-90
2022/01/22 02:56:20;;;;;;;11.93;2.73;;;5.50;99.90;;;;;;4862905;29;20045;-90
2022/01/22 02:58:59;;;;;;;11.43;2.27;;;5.90;99.90;;;;;;4862509;29;20084;-89
2022/01/22 03:01:27;;;;;;;11.53;2.50;;;5.60;99.90;;;;;;4862424;29;20077;-89
2022/01/22 03:03:56;;;;;;;11.43;2.50;;;7.80;99.90;;;;;;4863954;29;20049;-90
2022/01/22 03:06:37;;;;;;;10.80;2.40;;;6.10;99.90;;;;;;4861851;29;20041;-90
2022/01/22 03:09:25;;;;;;;11.90;2.87;;;6.90;99.90;;;;;;4862953;29;20072;-90
2022/01/22 03:29:14;;;;;;;14.77;2.33;;;6.00;99.90;;;;;;4865563;29;20049;-90
2022/01/22 03:32:05;;;;;;;10.40;2.30;;;7.30;99.90;;;;;;4865094;29;20053;-90
2022/01/22 03:34:38;;;;;;;9.40;2.20;;;5.80;99.90;;;;;;4867457;23;20053;-91
2022/01/22 03:37:04;;;;;;;13.43;2.20;;;5.80;99.90;;;;;;4862719;29;20060;-90
2022/01/22 03:39:29;;;;;;;11.13;2.20;;;5.50;99.90;;;;;;4862133;29;20041;-91
2022/01/22 03:42:51;;;;;;;10.77;2.37;;;7.30;99.90;;;;;;4871516;23;20148;-90
2022/01/22 03:45:27;;;;;;;13.17;2.57;;;5.00;99.90;;;;;;4868020;23;20486;-91
2022/01/22 03:47:53;;;;;;;11.20;2.47;;;5.60;99.90;;;;;;4861625;29;20053;-91
2022/01/22 03:50:28;;;;;;;8.60;2.00;;;5.70;99.90;;;;;;4862278;29;20041;-90
2022/01/22 03:53:00;;;;;;;14.17;2.33;;;5.60;99.90;;;;;;4862447;29;20060;-91
2022/01/22 03:55:59;;;;;;;14.10;2.60;;;5.50;99.90;;;;;;4861062;29;20412;-91
2022/01/22 03:58:12;;;;;;;11.17;2.33;;;5.70;99.90;;;;;;4861969;29;20406;-91
2022/01/22 04:00:43;;;;;;;11.70;2.33;;;6.00;99.90;;;;;;4874010;29;20048;-91
2022/01/22 04:08:56;;;;;;;14.30;2.70;;;5.10;99.90;;;;;;4837422;29;20088;-90
2022/01/22 04:11:22;;;;;;;10.23;2.03;;;6.60;99.90;;;;;;4861695;29;20132;-90
2022/01/22 04:13:52;;;;;;;8.80;2.30;;;5.70;99.90;;;;;;4863270;29;20077;-91
2022/01/22 04:16:21;;;;;;;10.07;2.00;;;5.60;99.90;;;;;;4861676;29;20113;-91
2022/01/22 04:24:55;;;;;;;9.87;2.03;;;6.70;99.90;;;;;;4862808;29;20045;-90
2022/01/22 04:27:27;;;;;;;7.67;2.00;;;7.00;99.90;;;;;;4864209;29;20072;-91
2022/01/22 04:29:57;;;;;;;8.97;1.80;;;5.90;99.90;;;;;;4861821;29;20065;-90
2022/01/22 04:32:26;;;;;;;9.70;2.10;;;6.00;99.90;;;;;;4861442;29;20053;-90
2022/01/22 04:34:52;;;;;;;9.83;2.00;;;6.50;99.90;;;;;;4864806;29;20045;-90
2022/01/22 04:37:33;;;;;;;9.70;2.07;;;5.60;99.90;;;;;;4880136;23;20116;-91
2022/01/22 04:41:00;;;;;;;7.73;2.07;;;6.70;99.90;;;;;;4864482;29;20049;-90
2022/01/22 04:43:35;;;;;;;11.40;2.23;;;5.10;99.90;;;;;;4863949;29;20565;-90
2022/01/22 04:46:17;;;;;;;10.57;2.00;;;6.50;99.90;;;;;;4863881;29;20506;-91
2022/01/22 04:55:06;;;;;;;11.07;2.27;;;5.70;99.90;;;;;;4864807;29;20056;-90
2022/01/22 04:57:39;;;;;;;;;;;5.80;99.90;;;;;;4864055;29;20065;-90
2022/01/22 05:00:11;;;;;;;10.30;2.30;;;5.80;99.90;;;;;;4879223;29;19923;-90
2022/01/22 05:05:14;;;;;;;13.03;2.40;;;5.70;99.90;;;;;;4847999;23;1197383;-90
2022/01/22 05:07:40;;;;;;;11.43;2.30;;;6.20;99.90;;;;;;4863796;29;20056;-91
2022/01/22 05:10:06;;;;;;;10.33;2.27;;;5.60;99.90;;;;;;4863967;29;20556;-90
2022/01/22 05:12:37;;;;;;;10.93;2.20;;;5.80;99.90;;;;;;4872022;29;20108;-91
2022/01/22 05:15:25;;;;;;;9.93;2.27;;;6.20;99.90;;;;;;4866860;29;20393;-90
2022/01/22 05:20:43;;;;;;;12.33;2.40;;;5.70;99.90;;;;;;4884421;23;20052;-91
2022/01/22 05:24:04;;;;;;;11.13;2.20;;;5.90;99.90;;;;;;4850059;29;20401;-90
2022/01/22 05:27:21;;;;;;;9.73;2.20;;;5.80;99.90;;;;;;4878426;29;20047;-91
2022/01/22 05:37:48;;;;;;;8.87;2.30;;;5.70;99.90;;;;;;4867426;23;20057;-91
2022/01/22 05:40:14;;;;;;;10.57;2.43;;;6.80;99.90;;;;;;4875141;29;20068;-90
2022/01/22 05:42:48;;;;;;;8.30;2.10;;;5.60;99.90;;;;;;4860987;29;20478;-90
2022/01/22 05:45:19;;;;;;;9.77;2.10;;;5.50;99.90;;;;;;4859931;29;20045;-90
2022/01/22 05:47:48;;;;;;;8.73;2.03;;;5.50;99.90;;;;;;4864854;29;20085;-90
2022/01/22 05:50:31;;;;;;;11.47;2.40;;;7.00;99.90;;;;;;4870195;29;20060;-91
2022/01/22 06:01:31;;;;;;;8.33;1.90;;;6.00;99.90;;;;;;4859247;29;20057;-91
2022/01/22 06:04:03;;;;;;;10.80;2.00;;;7.60;99.90;;;;;;4869603;23;20501;-91
2022/01/22 06:06:29;;;;;;;10.73;1.97;;;5.60;99.90;;;;;;4880752;23;20451;-91
2022/01/22 06:09:09;;;;;;;8.87;2.17;;;5.60;99.90;;;;;;4884233;23;20061;-91
2022/01/22 06:11:51;;;;;;;8.33;1.90;;;5.70;99.90;;;;;;4863311;29;20053;-91
2022/01/22 06:14:35;;;;;;;10.43;2.07;;;6.00;99.90;;;;;;4862191;29;20481;-90
2022/01/22 06:17:02;;;;;;;8.57;2.10;;;6.20;99.90;;;;;;4862978;29;20045;-90
2022/01/22 06:22:54;;;;;;;9.00;2.10;;;5.70;99.90;;;;;;4926772;23;20150;-91
2022/01/22 06:26:00;;;;;;;9.77;2.20;;;5.80;99.90;;;;;;4886097;29;20057;-90
2022/01/22 06:28:33;;;;;;;11.90;2.33;;;5.90;99.90;;;;;;4863457;29;20045;-91
2022/01/22 06:31:02;;;;;;;11.37;1.90;;;6.30;99.90;;;;;;4862041;29;20042;-90
2022/01/22 06:33:36;;;;;;;10.33;2.17;;;6.00;99.90;;;;;;4862522;29;20136;-90
2022/01/22 06:36:02;;;;;;;9.70;1.97;;;5.50;99.90;;;;;;4862821;29;20132;-91
2022/01/22 06:38:34;;;;;;;6.67;1.60;;;6.60;99.90;;;;;;4879502;29;20042;-91
2022/01/22 06:44:03;;;;;;;10.90;2.10;;;5.50;99.90;;;;;;4861796;29;20164;-90
2022/01/22 06:46:42;;;;;;;7.67;1.90;;;6.30;99.90;;;;;;4862410;29;20507;-91
2022/01/22 06:49:16;;;;;;;9.43;1.93;;;5.60;99.90;;;;;;4862635;29;20564;-91
2022/01/22 06:51:42;;;;;;;11.27;2.27;;;5.40;99.90;;;;;;4862388;29;20080;-91
2022/01/22 06:54:20;;;;;;;9.97;2.30;;;5.40;99.90;;;;;;4863154;29;20049;-90
2022/01/22 06:56:58;;;;;;;10.90;2.20;;;6.50;99.90;;;;;;4863247;29;20073;-91
2022/01/22 06:59:36;;;;;;;12.87;2.20;;;5.50;99.90;;;;;;4861993;29;20100;-91
2022/01/22 07:02:20;;;;;;;9.20;2.10;;;6.90;99.90;;;;;;4878986;29;20105;-91
2022/01/22 07:04:55;;;;;;;12.98;2.53;;;5.40;99.90;;;;;;4998980;23;20325;-91
2022/01/22 07:08:12;;;;;;;12.13;2.33;;;5.50;99.90;;;;;;4863111;29;20536;-91
2022/01/22 07:10:37;;;;;;;13.37;2.40;;;5.30;99.90;;;;;;4863155;29;20063;-91
2022/01/22 07:13:03;;;;;;;11.90;2.10;;;5.70;99.90;;;;;;4863075;29;20041;-92
2022/01/22 07:15:32;;;;;;;10.43;2.23;;;5.50;99.90;;;;;;4866221;29;20046;-91
2022/01/22 07:25:02;;;;;;;10.97;2.30;;;5.40;99.90;;;;;;5109732;23;20056;-93
2022/01/22 07:41:48;;;;;;;12.73;2.50;;;5.70;99.90;;;;;;5541205;23;20049;-96
2022/01/22 07:44:17;;;;;;;14.00;2.73;;;4.50;99.90;;;;;;4876209;29;20076;-95
2022/01/22 07:50:21;;;;;;;13.57;2.50;;;6.30;99.90;;;;;;4799177;29;20054;-96
2022/01/22 07:52:46;;;;;;;11.03;2.10;;;5.90;99.90;;;;;;4760697;30;20583;-96
2022/01/22 07:58:06;;;;;;;15.90;4.60;;;5.30;99.90;;;;;;4900328;23;20049;-95
2022/01/22 08:03:26;;;;;;;14.80;5.30;;;5.70;99.90;;;;;;4939298;23;20053;-92
2022/01/22 08:06:04;;;;;;;14.07;2.40;;;5.60;99.90;;;;;;4866500;29;20049;-95
2022/01/22 08:08:34;;;;;;;10.43;3.20;;;6.30;99.90;;;;;;4887546;24;20064;-94
2022/01/22 08:11:09;;;;;;;10.43;3.30;;;5.60;99.90;;;;;;4866472;29;20049;-93
2022/01/22 08:13:34;;;;;;;10.00;2.80;;;5.50;99.90;;;;;;4885060;23;20037;-92
2022/01/22 08:16:06;;;;;;;8.80;2.30;;;6.40;99.90;;;;;;4879684;29;20053;-93
2022/01/22 08:18:40;;;;;;;8.80;2.30;;;5.60;99.90;;;;;;4872088;23;20056;-94
2022/01/22 08:21:12;;;;;;;;;;;5.90;99.90;;;;;;4866609;29;20049;-92
2022/01/22 08:23:43;;;;;;;14.07;2.80;;;5.40;99.90;;;;;;4865701;29;19975;-93
2022/01/22 08:29:35;;;;;;;;;;;5.90;99.90;;;;;;4964610;23;20398;-96
2022/01/22 08:32:33;;;;;;;8.27;2.13;;;6.70;99.90;;;;;;4865089;29;20471;-92
2022/01/22 08:37:41;;;;;;;7.88;2.20;;;5.70;99.90;;;;;;4864287;29;20148;-91
2022/01/22 08:40:23;;;;;;;9.63;2.30;;;5.70;99.90;;;;;;4865124;29;20088;-92
2022/01/22 08:42:51;;;;;;;9.63;3.30;;;5.80;99.90;;;;;;4865072;29;20085;-93
2022/01/22 08:45:40;;;;;;;11.43;2.93;;;5.70;99.90;;;;;;4864911;29;20060;-94
2022/01/22 08:48:11;;;;;;;7.07;1.80;;;5.90;99.90;;;;;;4866426;29;20049;-93
2022/01/22 08:50:40;;;;;;;8.87;2.13;;;5.80;99.90;;;;;;4870876;29;20104;-91
2022/01/22 08:53:11;;;;;;;8.13;2.30;;;5.90;99.90;;;;;;4868368;29;20049;-92
2022/01/22 08:55:49;;;;;;;9.43;2.20;;;5.60;99.90;;;;;;4864064;29;20136;-92
2022/01/22 08:58:16;;;;;;;8.60;1.90;;;5.40;99.90;;;;;;4863429;29;20124;-92
2022/01/22 09:00:53;;;;;;;7.20;2.10;;;5.70;99.90;;;;;;4864409;29;20040;-91
2022/01/22 09:03:20;;;;;;;8.73;2.77;;;5.60;99.90;;;;;;4864066;29;20056;-92
2022/01/22 09:08:24;;;;;;;10.13;2.87;;;5.80;99.90;;;;;;4879164;29;20064;-91
2022/01/22 09:11:00;;;;;;;18.97;11.13;;;5.80;99.90;;;;;;4864231;29;20056;-90
2022/01/22 09:13:33;;;;;;;25.60;20.00;;;6.70;99.90;;;;;;4862908;29;20063;-90
2022/01/22 09:16:03;;;;;;;8.48;2.20;;;7.10;99.90;;;;;;4863921;29;20040;-90
2022/01/22 09:18:31;;;;;;;7.00;2.17;;;5.80;99.90;;;;;;4862991;29;20049;-90
2022/01/22 09:21:12;;;;;;;9.87;3.20;;;6.50;99.90;;;;;;4863821;29;20049;-89
2022/01/22 09:23:38;;;;;;;8.43;3.00;;;6.50;99.90;;;;;;4864597;29;20052;-94
2022/01/22 09:28:57;;;;;;;6.33;1.77;;;5.90;99.90;;;;;;4918269;23;20057;-94
2022/01/22 09:32:17;;;;;;;7.37;2.10;;;5.80;99.90;;;;;;4878461;29;20068;-94
2022/01/22 09:39:16;;;;;;;7.50;1.67;;;6.40;99.90;;;;;;4860480;29;20106;-93
2022/01/22 09:41:51;;;;;;;8.33;1.90;;;7.60;99.90;;;;;;4845890;29;20053;-96
2022/01/22 09:47:02;;;;;;;7.87;1.70;;;6.00;99.90;;;;;;4883735;23;20454;-92
2022/01/22 09:50:20;;;;;;;8.67;1.90;;;6.00;99.90;;;;;;4825707;29;20057;-93
2022/01/22 09:53:51;;;;;;;13.27;2.23;;;6.00;99.90;;;;;;4842295;29;20065;-93
2022/01/22 10:06:00;;;;;;;12.00;3.50;;;6.20;99.90;;;;;;4879934;29;20084;-92
2022/01/22 10:08:32;;;;;;;9.20;2.87;;;6.80;99.90;;;;;;4876890;29;20081;-90
2022/01/22 10:13:39;;;;;;;9.03;3.13;;;6.00;99.90;;;;;;4890184;23;20049;-92
2022/01/22 10:16:35;;;;;;;11.53;2.67;;;5.90;99.90;;;;;;4878649;29;20413;-91
2022/01/22 10:23:21;;;;;;;8.67;2.50;;;6.10;99.90;;;;;;4885897;23;20509;-91
2022/01/22 10:26:13;;;;;;;8.60;2.37;;;6.00;99.90;;;;;;4874724;23;20121;-91
2022/01/22 10:28:44;;;;;;;12.47;3.57;;;7.30;99.90;;;;;;4788370;29;20145;-92
2022/01/22 10:34:17;;;;;;;9.37;2.27;;;5.90;99.90;;;;;;5332293;23;20080;-88
2022/01/22 10:36:59;;;;;;;12.07;4.57;;;5.90;99.90;;;;;;4863647;29;20045;-94
2022/01/22 10:39:26;;;;;;;12.00;5.23;;;6.10;99.90;;;;;;4867833;29;20036;-92
2022/01/22 10:41:55;;;;;;;9.53;2.33;;;5.90;99.90;;;;;;4874798;29;20055;-93
2022/01/22 10:44:56;;;;;;;11.47;3.63;;;6.40;99.90;;;;;;4862413;29;20084;-92
2022/01/22 10:47:31;;;;;;;15.17;3.37;;;6.10;99.90;;;;;;4862614;29;20139;-92
2022/01/22 10:50:24;;;;;;;12.07;3.30;;;5.90;99.90;;;;;;4862192;29;20049;-92
2022/01/22 10:52:55;;;;;;;13.20;3.50;;;6.50;99.90;;;;;;4863113;29;20128;-92
2022/01/22 10:55:24;;;;;;;10.43;4.20;;;7.40;99.90;;;;;;4863121;29;20589;-92
2022/01/22 10:58:19;;;;;;;14.73;5.63;;;6.00;99.90;;;;;;4866075;29;20045;-90
2022/01/22 11:04:24;;;;;;;9.97;4.43;;;5.50;99.90;;;;;;4858557;29;20044;-93
2022/01/22 11:15:12;;;;;;;10.90;3.17;;;5.60;99.90;;;;;;4871738;29;20128;-95
2022/01/22 11:37:12;;;;;;;10.53;3.30;;;6.70;99.90;;;;;;4908795;23;20056;-96
2022/01/22 11:40:14;;;;;;;12.43;3.30;;;7.40;99.90;;;;;;4800600;29;20059;-96
2022/01/22 11:43:23;;;;;;;10.57;3.00;;;6.70;99.90;;;;;;4927372;23;20121;-96
2022/01/22 11:46:26;;;;;;;12.27;4.70;;;7.00;99.90;;;;;;4864866;29;20106;-95
2022/01/22 11:49:27;;;;;;;11.80;3.00;;;6.50;99.90;;;;;;4847350;29;20045;-93
2022/01/22 11:52:07;;;;;;;11.93;3.00;;;6.60;99.90;;;;;;4810239;29;20496;-93
2022/01/22 11:54:53;;;;;;;9.27;2.70;;;6.60;99.90;;;;;;4821386;29;20105;-92
2022/01/22 11:57:19;;;;;;;12.37;4.33;;;6.60;99.90;;;;;;4810624;29;20046;-91
2022/01/22 12:00:17;;;;;;;13.03;3.40;;;6.60;99.90;;;;;;4815611;29;20050;-96
2022/01/22 12:03:12;;;;;;;9.93;2.70;;;7.90;99.90;;;;;;4812125;29;20058;-96
2022/01/22 12:06:04;;;;;;;11.88;4.30;;;6.80;99.90;;;;;;4813881;29;20077;-95
2022/01/22 12:16:32;;;;;;;9.50;3.13;;;6.80;99.90;;;;;;4867370;29;20192;-96
2022/01/22 12:19:03;;;;;;;10.83;3.30;;;7.20;99.90;;;;;;4881240;29;20506;-94
2022/01/22 12:21:38;;;;;;;17.40;5.73;;;6.10;99.90;;;;;;4924738;23;20045;-95
2022/01/22 12:24:12;;;;;;;14.37;5.17;;;6.50;99.90;;;;;;4878116;29;20060;-93
2022/01/22 12:26:47;;;;;;;16.67;3.90;;;6.40;99.90;;;;;;4849074;29;20077;-93
2022/01/22 12:29:49;;;;;;;18.17;4.53;;;6.60;99.90;;;;;;4871627;29;20057;-93
2022/01/22 12:33:01;;;;;;;15.00;4.00;;;7.60;99.90;;;;;;4876030;29;20101;-94
2022/01/22 12:35:35;;;;;;;18.03;7.57;;;6.70;99.90;;;;;;4867985;29;20112;-91
2022/01/22 12:38:48;;;;;;;24.60;9.30;;;6.30;99.90;;;;;;4863002;29;20054;-92
2022/01/22 12:41:47;;;;;;;14.57;4.13;;;6.40;99.90;;;;;;4861685;29;20052;-92
2022/01/22 12:44:54;;;;;;;19.60;12.20;;;6.50;99.90;;;;;;4873980;23;21014;-92
2022/01/22 12:47:23;;;;;;;14.77;4.20;;;6.40;99.90;;;;;;4864326;29;20057;-92
2022/01/22 12:50:20;;;;;;;15.70;4.43;;;6.30;99.90;;;;;;4879872;29;20049;-92
2022/01/22 12:53:01;;;;;;;11.23;3.67;;;6.40;99.90;;;;;;4845503;29;20161;-92
2022/01/22 12:58:48;;;;;;;14.57;6.23;;;7.30;99.90;;;;;;4864063;29;20049;-92
2022/01/22 13:01:28;;;;;;;16.50;4.67;;;6.40;99.90;;;;;;4881399;29;20085;-91
2022/01/22 13:04:13;;;;;;;14.97;4.53;;;8.20;99.90;;;;;;4882735;29;20048;-95
2022/01/22 13:09:16;;;;;;;18.50;7.20;;;6.40;99.90;;;;;;4875839;24;20096;-91
2022/01/22 13:11:57;;;;;;;14.87;5.90;;;6.10;99.90;;;;;;4845117;29;20038;-91
2022/01/22 13:14:41;;;;;;;19.07;6.40;;;6.20;99.90;;;;;;4845242;29;20168;-91
2022/01/22 13:17:13;;;;;;;22.10;9.02;;;6.20;99.90;;;;;;4851333;23;20049;-90
2022/01/22 13:19:39;;;;;;;15.23;5.00;;;6.30;99.90;;;;;;4874676;29;20057;-92
2022/01/22 13:22:06;;;;;;;19.20;5.53;;;6.20;99.90;;;;;;4860927;29;20168;-92
2022/01/22 13:24:48;;;;;;;14.93;5.37;;;6.30;99.90;;;;;;4860180;29;20061;-93
2022/01/22 13:27:17;;;;;;;17.67;5.20;;;6.30;99.90;;;;;;4860629;29;20398;-90
2022/01/22 13:29:54;;;;;;;16.20;5.17;;;6.30;99.90;;;;;;4859806;29;20045;-90
2022/01/22 13:32:34;;;;;;;17.30;6.00;;;6.30;99.90;;;;;;4858818;29;20049;-90
2022/01/22 13:35:30;;;;;;;16.77;5.80;;;7.10;99.90;;;;;;4859807;29;20528;-90
2022/01/22 13:38:24;;;;;;;15.37;5.10;;;6.20;99.90;;;;;;4860563;29;20053;-91
2022/01/22 13:49:59;;;;;;;14.83;5.90;;;6.40;99.90;;;;;;4886492;23;20065;-91
2022/01/22 13:52:28;;;;;;;13.40;5.23;;;6.80;99.90;;;;;;4868243;24;20058;-91
2022/01/22 13:54:58;;;;;;;13.07;5.07;;;6.50;99.90;;;;;;4840934;29;20057;-92
2022/01/22 13:57:35;;;;;;;20.47;9.00;;;6.00;99.90;;;;;;4826801;29;20091;-90
2022/01/22 14:00:10;;;;;;;41.93;21.30;;;6.00;99.90;;;;;;4889854;24;20151;-91
2022/01/22 14:05:41;;;;;;;17.52;5.78;;;6.10;99.90;;;;;;4878664;29;20048;-92
2022/01/22 14:08:08;;;;;;;15.70;5.93;;;7.00;99.90;;;;;;4879148;29;20068;-92
2022/01/22 14:11:23;;;;;;;19.73;5.60;;;7.10;99.90;;;;;;4879046;29;20045;-92
2022/01/22 14:14:09;;;;;;;16.25;4.82;;;6.30;99.90;;;;;;4878597;29;20143;-92
2022/01/22 14:16:54;;;;;;;13.93;4.70;;;6.30;99.90;;;;;;4878705;29;20053;-94
2022/01/22 14:19:38;;;;;;;16.30;6.53;;;5.50;99.90;;;;;;4889906;29;20061;-92
2022/01/22 14:22:22;;;;;;;13.00;4.70;;;6.10;99.90;;;;;;4881597;29;20051;-93
2022/01/22 14:25:11;;;;;;;13.00;4.20;;;7.20;99.90;;;;;;4878748;29;20108;-92
2022/01/22 14:27:40;;;;;;;11.50;3.77;;;6.40;99.90;;;;;;4879059;29;20045;-93
2022/01/22 14:30:36;;;;;;;12.90;3.97;;;6.30;99.90;;;;;;4863558;29;20048;-95
2022/01/22 14:33:10;;;;;;;11.67;3.30;;;6.30;99.90;;;;;;4883991;29;20088;-94
2022/01/22 14:35:43;;;;;;;13.45;3.60;;;6.10;99.90;;;;;;4882635;29;20055;-92
2022/01/22 14:38:58;;;;;;;12.00;3.10;;;6.00;99.90;;;;;;4882732;29;20413;-93
2022/01/22 14:48:22;;;;;;;13.57;4.83;;;6.80;99.90;;;;;;4865843;29;20057;-95
2022/01/22 14:50:52;;;;;;;12.73;3.57;;;6.00;99.90;;;;;;4881452;29;20056;-96
2022/01/22 14:53:19;;;;;;;16.43;3.83;;;6.90;99.90;;;;;;4866393;29;20041;-94
2022/01/22 14:56:14;;;;;;;16.90;3.90;;;5.80;99.90;;;;;;4889206;29;20097;-93
2022/01/22 14:58:42;;;;;;;13.13;3.90;;;6.20;99.90;;;;;;4882784;29;20072;-94
2022/01/22 15:01:09;;;;;;;11.63;3.70;;;7.00;99.90;;;;;;4882326;29;20045;-93
2022/01/22 15:03:50;;;;;;;14.97;4.07;;;5.80;99.90;;;;;;4881682;29;20053;-92
2022/01/22 15:06:15;;;;;;;12.10;3.90;;;7.60;99.90;;;;;;4881890;29;20044;-91
2022/01/22 15:08:41;;;;;;;13.83;4.07;;;6.30;99.90;;;;;;4882136;29;20568;-91
2022/01/22 15:11:07;;;;;;;15.93;4.17;;;5.90;99.90;;;;;;4881468;29;20123;-92
2022/01/22 15:13:48;;;;;;;14.43;4.03;;;5.80;99.90;;;;;;4881668;29;20044;-91
2022/01/22 15:16:21;;;;;;;16.43;4.47;;;5.70;99.90;;;;;;4874888;23;20057;-94
2022/01/22 15:19:27;;;;;;;13.63;3.97;;;6.00;99.90;;;;;;4806225;29;20070;-94
2022/01/22 15:21:56;;;;;;;13.00;3.40;;;4.90;99.90;;;;;;4810978;29;20065;-92
2022/01/22 15:24:28;;;;;;;11.90;3.97;;;5.70;99.90;;;;;;4812771;29;20087;-93
2022/01/22 15:26:59;;;;;;;12.80;3.87;;;5.90;99.90;;;;;;4812189;29;20050;-90
2022/01/22 15:29:28;;;;;;;18.87;7.10;;;5.70;99.90;;;;;;4808196;29;20517;-91
2022/01/22 15:37:08;;;;;;;10.33;3.83;;;5.90;99.90;;;;;;4823146;29;20058;-92
2022/01/22 15:39:35;;;;;;;10.63;3.07;;;5.60;99.90;;;;;;4806450;29;20586;-92
2022/01/22 15:42:05;;;;;;;11.73;4.57;;;5.50;99.90;;;;;;4807106;29;20404;-92
2022/01/22 15:44:32;;;;;;;11.30;3.10;;;6.70;99.90;;;;;;4807227;29;20057;-91
2022/01/22 15:47:04;;;;;;;9.73;2.70;;;5.70;99.90;;;;;;4807066;29;20053;-91
2022/01/22 15:49:54;;;;;;;11.97;2.90;;;5.70;99.90;;;;;;4807376;29;20058;-92
2022/01/22 15:52:22;;;;;;;10.23;3.00;;;7.00;99.90;;;;;;4806265;29;20091;-92
2022/01/22 15:55:08;;;;;;;12.47;2.70;;;5.40;99.90;;;;;;4808090;29;20072;-93
2022/01/22 15:57:36;;;;;;;8.37;2.60;;;5.70;99.90;;;;;;4822407;29;20078;-92
2022/01/22 16:00:17;;;;;;;9.40;2.60;;;5.60;99.90;;;;;;4807291;29;20140;-95
2022/01/22 16:03:18;;;;;;;10.27;2.80;;;6.70;99.90;;;;;;4814033;29;20113;-94
2022/01/22 16:06:10;;;;;;;13.00;2.63;;;5.70;99.90;;;;;;4808453;29;20484;-93
2022/01/22 16:08:39;;;;;;;9.13;2.50;;;5.40;99.90;;;;;;4814061;29;20081;-94
2022/01/22 16:11:26;;;;;;;15.80;3.03;;;6.50;99.90;;;;;;4813139;29;20057;-96
2022/01/22 16:13:52;;;;;;;9.83;2.60;;;5.70;99.90;;;;;;4814665;29;20145;-94
2022/01/22 16:16:18;;;;;;;12.00;3.03;;;5.80;99.90;;;;;;4811627;29;20476;-89
2022/01/22 16:18:50;;;;;;;16.97;3.53;;;5.40;99.90;;;;;;4806656;29;20070;-93
2022/01/22 16:21:22;;;;;;;12.63;3.10;;;5.30;99.90;;;;;;4805904;29;20142;-89
2022/01/22 16:23:47;;;;;;;13.57;3.23;;;5.30;99.90;;;;;;4806452;29;20046;-87
2022/01/22 16:26:15;;;;;;;12.33;2.70;;;5.30;99.90;;;;;;4811026;29;20059;-86
2022/01/22 16:28:50;;;;;;;12.80;4.20;;;5.50;99.90;;;;;;4812033;29;20083;-87
2022/01/22 16:31:15;;;;;;;11.30;3.87;;;5.30;99.90;;;;;;4811054;29;20062;-87
2022/01/22 16:33:43;;;;;;;14.30;3.30;;;5.40;99.90;;;;;;4798602;29;20058;-87
2022/01/22 16:36:28;;;;;;;11.10;3.30;;;5.40;99.90;;;;;;4794989;29;20380;-92
2022/01/22 16:39:16;;;;;;;11.37;3.60;;;5.40;99.90;;;;;;4804763;29;20055;-92
2022/01/22 16:41:57;;;;;;;14.73;4.10;;;4.40;99.90;;;;;;4805168;29;20053;-92
2022/01/22 16:45:06;;;;;;;12.80;3.50;;;5.80;99.90;;;;;;4812275;29;20030;-93
2022/01/22 16:59:14;;;;;;;10.03;3.27;;;;;;;;;;4862206;29;20049;-93
2022/01/22 17:01:47;;;;;;;10.17;2.77;;;5.30;99.90;;;;;;4868024;23;20053;-92
2022/01/22 17:05:19;;;;;;;10.13;2.80;;;5.30;99.90;;;;;;4806121;29;20141;-93
2022/01/22 17:08:38;;;;;;;10.00;2.90;;;4.60;99.90;;;;;;4807584;29;20479;-91
2022/01/22 17:11:11;;;;;;;14.00;3.40;;;4.90;99.90;;;;;;4807196;29;20078;-93
2022/01/22 17:16:28;;;;;;;10.83;3.23;;;5.30;99.90;;;;;;4883338;23;20053;-93
2022/01/22 17:19:05;;;;;;;12.87;3.77;;;5.20;99.90;;;;;;4864015;29;20049;-93
2022/01/22 17:21:43;;;;;;;11.87;3.40;;;4.70;99.90;;;;;;4872867;29;20081;-93
2022/01/22 17:24:12;;;;;;;10.93;3.33;;;5.10;99.90;;;;;;4871124;29;20049;-92
2022/01/22 17:26:50;;;;;;;11.33;2.97;;;6.40;99.90;;;;;;4866724;23;20045;-93
2022/01/22 17:29:19;;;;;;;15.20;7.67;;;5.30;99.90;;;;;;4885440;23;20513;-92
2022/01/22 17:31:52;;;;;;;10.80;3.23;;;6.30;99.90;;;;;;4878193;29;20132;-95
2022/01/22 17:34:24;;;;;;;12.07;3.45;;;4.60;99.90;;;;;;4975782;23;20400;-95
2022/01/22 17:37:41;;;;;;;17.53;10.53;;;5.00;99.90;;;;;;4845026;29;20049;-91
2022/01/22 17:44:45;;;;;;;8.90;2.77;;;5.20;99.90;;;;;;4858069;29;20050;-91
2022/01/22 17:47:51;;;;;;;15.13;8.83;;;5.00;99.90;;;;;;4842492;29;20052;-92
2022/01/22 17:50:19;;;;;;;11.93;5.87;;;5.60;99.90;;;;;;4842694;29;20547;-92
2022/01/22 17:52:56;;;;;;;10.83;3.50;;;4.90;99.90;;;;;;4860421;23;20041;-93
2022/01/22 17:55:35;;;;;;;10.60;4.33;;;6.10;99.90;;;;;;4858568;29;20490;-92
2022/01/22 17:58:23;;;;;;;11.20;4.17;;;6.60;99.90;;;;;;4868147;29;20131;-93
2022/01/22 18:01:00;;;;;;;12.83;7.47;;;5.00;99.90;;;;;;4863965;29;20049;-93
2022/01/22 18:03:28;;;;;;;10.47;4.03;;;4.70;99.90;;;;;;4866973;23;20108;-92
2022/01/22 18:06:03;;;;;;;12.90;4.43;;;6.30;99.90;;;;;;4861774;29;20473;-93
2022/01/22 18:08:47;;;;;;;14.30;6.20;;;5.40;99.90;;;;;;4861758;29;20674;-92